Time;durP1;ratioP1;P1;durP2;ratioP2;P2;SDS_P1;SDS_P2;PMS_P1;PMS_P2;Temp;Humidity;BMP_temperature;BMP_pressure;BME280_temperature;BME280_humidity;BME280_pressure;Samples;Min_cycle;Max_cycle;Signal;HPM_P1;HPM_P2
2023/05/25 00:01:25;;;;;;;;;;;;;;;12.36;100.00;-18360.63;5016737;28;19928;-78
2023/05/25 00:03:51;;;;;;;;;;;;;;;12.45;100.00;-18362.94;5012480;28;20442;-78
2023/05/25 00:06:17;;;;;;;;;;;;;;;12.44;100.00;-18362.66;5013084;28;20307;-78
2023/05/25 00:08:42;;;;;;;;;;;;;;;12.37;100.00;-18360.88;5013527;28;20020;-78
2023/05/25 00:11:07;;;;;;;;;;;;;;;12.41;100.00;-18362.00;5015169;28;20296;-79
2023/05/25 00:13:32;;;;;;;;;;;;;;;12.47;100.00;-18363.50;5005280;28;20004;-78
2023/05/25 00:15:58;;;;;;;;;;;;;;;12.44;100.00;-18362.66;5005585;28;19929;-78
2023/05/25 00:18:23;;;;;;;;;;;;;;;12.27;100.00;-18358.28;5011930;28;19933;-78
2023/05/25 00:20:52;;;;;;;;;;;;;;;12.05;100.00;-18352.25;5009730;28;19918;-78
2023/05/25 00:23:18;;;;;;;;;;;;;;;12.05;100.00;-18352.38;5016682;28;19983;-78
2023/05/25 00:25:43;;;;;;;;;;;;;;;12.05;100.00;-18352.38;5014469;28;20364;-78
2023/05/25 00:28:09;;;;;;;;;;;;;;;11.87;100.00;-18347.56;5003021;28;19983;-78
2023/05/25 00:30:34;;;;;;;;;;;;;;;11.88;100.00;-18347.72;5015945;28;19933;-79
2023/05/25 00:33:00;;;;;;;;;;;;;;;11.82;100.00;-18346.19;5016882;28;20025;-78
2023/05/25 00:35:25;;;;;;;;;;;;;;;11.71;100.00;-18343.19;5017638;28;19921;-78
2023/05/25 00:37:51;;;;;;;;;;;;;;;11.60;100.00;-18340.16;5010721;28;19918;-78
2023/05/25 00:40:17;;;;;;;;;;;;;;;11.61;100.00;-18340.56;5001259;28;19984;-78
2023/05/25 00:42:43;;;;;;;;;;;;;;;11.49;100.00;-18337.41;5007331;28;20255;-78
2023/05/25 00:45:11;;;;;;;;;;;;;;;11.43;100.00;-18335.63;5016469;28;19952;-78
2023/05/25 00:47:38;;;;;;;;;;;;;;;11.67;100.00;-18342.22;5017759;28;19918;-78
2023/05/25 00:50:07;;;;;;;;;;;;;;;11.71;100.00;-18343.19;5017385;28;19989;-78
2023/05/25 00:52:32;;;;;;;;;;;;;;;11.05;100.00;-18325.59;5011677;28;19918;-78
2023/05/25 00:54:59;;;;;;;;;;;;;;;10.94;100.00;-18322.59;5005124;28;19932;-78
2023/05/25 00:57:26;;;;;;;;;;;;;;;10.90;100.00;-18321.50;5004579;28;19926;-78
2023/05/25 00:59:53;;;;;;;;;;;;;;;10.88;100.00;-18320.94;4999397;28;19947;-78
2023/05/25 01:02:18;;;;;;;;;;;;;;;10.74;100.00;-18317.09;5006041;28;19926;-78
2023/05/25 01:04:45;;;;;;;;;;;;;;;10.84;100.00;-18319.84;5004670;28;20307;-79
2023/05/25 01:07:16;;;;;;;;;;;;;;;10.67;100.00;-18315.16;5007094;28;19929;-78
2023/05/25 01:09:43;;;;;;;;;;;;;;;10.73;100.00;-18316.81;5024296;28;20012;-78
2023/05/25 01:12:09;;;;;;;;;;;;;;;10.78;100.00;-18318.19;5014497;28;19933;-78
2023/05/25 01:14:36;;;;;;;;;;;;;;;10.71;100.00;-18316.41;5008656;28;19941;-79
2023/05/25 01:17:02;;;;;;;;;;;;;;;10.73;100.00;-18316.97;5007016;28;19949;-78
2023/05/25 01:19:27;;;;;;;;;;;;;;;10.72;100.00;-18316.53;5012733;28;19968;-78
2023/05/25 01:22:02;;;;;;;;;;;;;;;10.77;100.00;-18318.06;5014753;28;20295;-78
2023/05/25 01:24:39;;;;;;;;;;;;;;;10.64;100.00;-18314.47;5014140;28;19940;-78
2023/05/25 01:27:07;;;;;;;;;;;;;;;10.67;100.00;-18315.16;5001796;28;19934;-78
2023/05/25 01:29:33;;;;;;;;;;;;;;;10.73;100.00;-18316.81;5002330;28;19933;-78
2023/05/25 01:32:01;;;;;;;;;;;;;;;10.55;100.00;-18312.00;5002734;28;19925;-78
2023/05/25 01:34:27;;;;;;;;;;;;;;;10.54;100.00;-18311.88;5007091;28;19918;-78
2023/05/25 01:36:52;;;;;;;;;;;;;;;10.39;100.00;-18307.88;5004562;28;19922;-78
2023/05/25 01:39:20;;;;;;;;;;;;;;;10.26;100.00;-18304.16;5002000;28;19932;-78
2023/05/25 01:41:45;;;;;;;;;;;;;;;10.21;100.00;-18302.78;5003173;28;19984;-78
2023/05/25 01:44:11;;;;;;;;;;;;;;;10.34;100.00;-18306.38;5008329;28;19922;-78
2023/05/25 01:46:37;;;;;;;;;;;;;;;10.34;100.00;-18306.38;5009796;28;19921;-77
2023/05/25 01:49:07;;;;;;;;;;;;;;;10.32;100.00;-18305.97;5003687;28;20012;-78
2023/05/25 01:51:32;;;;;;;;;;;;;;;10.12;100.00;-18300.47;5001210;28;19918;-78
2023/05/25 01:54:01;;;;;;;;;;;;;;;10.09;100.00;-18299.63;5012218;28;20385;-78
2023/05/25 01:56:27;;;;;;;;;;;;;;;9.99;100.00;-18296.88;5006507;28;19937;-77
2023/05/25 01:58:54;;;;;;;;;;;;;;;10.15;100.00;-18301.28;5010830;28;19922;-78
2023/05/25 02:01:21;;;;;;;;;;;;;;;10.06;100.00;-18298.81;5014231;28;19922;-78
2023/05/25 02:03:47;;;;;;;;;;;;;;;10.02;100.00;-18297.84;5009028;28;19925;-78
2023/05/25 02:06:14;;;;;;;;;;;;;;;9.97;100.00;-18296.34;5009735;28;19983;-78
2023/05/25 02:08:40;;;;;;;;;;;;;;;9.95;100.00;-18295.94;5005976;28;20017;-78
2023/05/25 02:11:05;;;;;;;;;;;;;;;10.07;100.00;-18299.22;5005949;28;19949;-78
2023/05/25 02:13:30;;;;;;;;;;;;;;;10.17;100.00;-18301.84;5001167;28;20392;-78
2023/05/25 02:15:55;;;;;;;;;;;;;;;10.23;100.00;-18303.34;5000980;28;19929;-78
2023/05/25 02:18:21;;;;;;;;;;;;;;;10.42;100.00;-18308.44;5007313;28;20036;-78
2023/05/25 02:20:46;;;;;;;;;;;;;;;10.43;100.00;-18308.84;5003076;28;19926;-79
2023/05/25 02:23:11;;;;;;;;;;;;;;;10.30;100.00;-18305.28;5002884;28;20416;-78
2023/05/25 02:25:36;;;;;;;;;;;;;;;10.32;100.00;-18305.81;5005059;28;19921;-78
2023/05/25 02:28:02;;;;;;;;;;;;;;;10.26;100.00;-18304.16;5003708;28;19921;-78
2023/05/25 02:30:28;;;;;;;;;;;;;;;10.39;100.00;-18307.88;4999615;28;20373;-78
2023/05/25 02:32:53;;;;;;;;;;;;;;;10.36;100.00;-18307.06;4997008;28;19926;-78
2023/05/25 02:35:18;;;;;;;;;;;;;;;10.39;100.00;-18307.75;4996789;28;20608;-77
2023/05/25 02:37:44;;;;;;;;;;;;;;;10.38;100.00;-18307.63;5002497;28;20393;-77
2023/05/25 02:40:10;;;;;;;;;;;;;;;10.23;100.00;-18303.34;4995252;28;19926;-77
2023/05/25 02:42:35;;;;;;;;;;;;;;;10.19;100.00;-18302.25;4999665;28;22188;-77
2023/05/25 02:45:00;;;;;;;;;;;;;;;9.92;100.00;-18295.25;4995038;28;19922;-77
2023/05/25 02:47:26;;;;;;;;;;;;;;;10.00;100.00;-18297.16;5004095;28;20474;-78
2023/05/25 02:49:51;;;;;;;;;;;;;;;10.00;100.00;-18297.31;4997528;28;20388;-77
2023/05/25 02:52:16;;;;;;;;;;;;;;;9.87;100.00;-18293.72;4993562;28;19921;-78
2023/05/25 02:54:42;;;;;;;;;;;;;;;9.82;100.00;-18292.34;5000333;28;19972;-78
2023/05/25 02:57:07;;;;;;;;;;;;;;;9.67;100.00;-18288.38;5000691;28;20012;-77
2023/05/25 02:59:32;;;;;;;;;;;;;;;9.77;100.00;-18290.97;4997141;28;19921;-77
2023/05/25 03:01:57;;;;;;;;;;;;;;;9.87;100.00;-18293.88;5000187;28;20004;-77
2023/05/25 03:04:23;;;;;;;;;;;;;;;9.94;100.00;-18295.66;5014939;28;19925;-76
2023/05/25 03:06:48;;;;;;;;;;;;;;;9.76;100.00;-18290.69;4992412;28;19932;-77
2023/05/25 03:09:13;;;;;;;;;;;;;;;9.67;100.00;-18288.38;5002830;28;19936;-78
2023/05/25 03:11:38;;;;;;;;;;;;;;;9.71;100.00;-18289.47;4998047;28;19929;-77
2023/05/25 03:14:04;;;;;;;;;;;;;;;9.64;100.00;-18287.53;5000613;28;19950;-77
2023/05/25 03:16:29;;;;;;;;;;;;;;;9.79;100.00;-18291.53;4996646;28;19932;-77
2023/05/25 03:18:54;;;;;;;;;;;;;;;9.77;100.00;-18290.97;5002986;28;20357;-77
2023/05/25 03:21:21;;;;;;;;;;;;;;;9.84;100.00;-18292.91;4997922;28;20656;-77
2023/05/25 03:23:46;;;;;;;;;;;;;;;9.97;100.00;-18296.47;4997923;28;19949;-77
2023/05/25 03:26:12;;;;;;;;;;;;;;;9.71;100.00;-18289.59;5000119;28;20385;-76
2023/05/25 03:28:37;;;;;;;;;;;;;;;9.93;100.00;-18295.50;4993665;28;19926;-77
2023/05/25 03:31:03;;;;;;;;;;;;;;;10.02;100.00;-18297.72;4997811;28;19929;-77
2023/05/25 03:33:28;;;;;;;;;;;;;;;10.02;100.00;-18297.72;4998998;28;20288;-78
2023/05/25 03:35:53;;;;;;;;;;;;;;;9.99;100.00;-18297.03;4997473;28;19930;-77
2023/05/25 03:38:19;;;;;;;;;;;;;;;9.94;100.00;-18295.66;4994783;28;20304;-77
2023/05/25 03:40:44;;;;;;;;;;;;;;;9.86;100.00;-18293.59;4997660;28;21773;-76
2023/05/25 03:43:10;;;;;;;;;;;;;;;9.88;100.00;-18294.13;4992132;28;19928;-78
2023/05/25 03:45:35;;;;;;;;;;;;;;;9.84;100.00;-18292.91;4992352;28;19926;-77
2023/05/25 03:48:00;;;;;;;;;;;;;;;9.72;100.00;-18289.75;4996891;28;19937;-78
2023/05/25 03:50:25;;;;;;;;;;;;;;;9.58;100.00;-18285.88;4994240;28;20448;-77
2023/05/25 03:52:50;;;;;;;;;;;;;;;9.65;100.00;-18287.94;4999174;28;20344;-77
2023/05/25 03:55:16;;;;;;;;;;;;;;;9.61;100.00;-18286.72;4994680;28;19928;-77
2023/05/25 03:57:41;;;;;;;;;;;;;;;9.59;100.00;-18286.31;4996880;28;20562;-77
2023/05/25 04:00:09;;;;;;;;;;;;;;;9.65;100.00;-18287.94;5011884;28;19968;-78
2023/05/25 04:02:35;;;;;;;;;;;;;;;9.82;100.00;-18292.50;5002154;28;19961;-77
2023/05/25 04:05:00;;;;;;;;;;;;;;;9.94;100.00;-18295.66;5004326;28;19961;-77
2023/05/25 04:07:26;;;;;;;;;;;;;;;9.97;100.00;-18296.34;4998092;28;19964;-77
2023/05/25 04:09:51;;;;;;;;;;;;;;;9.75;100.00;-18290.56;4998591;28;19932;-77
2023/05/25 04:12:17;;;;;;;;;;;;;;;9.82;100.00;-18292.50;4999428;28;19922;-77
2023/05/25 04:14:42;;;;;;;;;;;;;;;9.79;100.00;-18291.53;4994484;28;20313;-80
2023/05/25 04:17:07;;;;;;;;;;;;;;;9.81;100.00;-18292.06;5002776;28;19932;-79
2023/05/25 04:19:32;;;;;;;;;;;;;;;9.84;100.00;-18293.03;5004797;28;19921;-79
2023/05/25 04:21:58;;;;;;;;;;;;;;;10.04;100.00;-18298.41;4995383;28;19932;-79
2023/05/25 04:24:23;;;;;;;;;;;;;;;9.90;100.00;-18294.56;5001907;28;19926;-77
2023/05/25 04:26:49;;;;;;;;;;;;;;;9.90;100.00;-18294.69;4997545;28;19922;-79
2023/05/25 04:29:14;;;;;;;;;;;;;;;9.99;100.00;-18297.03;5001787;28;19930;-75
2023/05/25 04:31:39;;;;;;;;;;;;;;;10.09;100.00;-18299.78;5003665;28;20035;-76
2023/05/25 04:34:05;;;;;;;;;;;;;;;10.22;100.00;-18303.06;4999894;28;19921;-78
2023/05/25 04:36:31;;;;;;;;;;;;;;;10.30;100.00;-18305.28;5002091;28;19953;-79
2023/05/25 04:38:56;;;;;;;;;;;;;;;10.34;100.00;-18306.38;5008215;28;19922;-80
2023/05/25 04:41:22;;;;;;;;;;;;;;;10.35;100.00;-18306.78;5003022;28;19976;-77
2023/05/25 04:43:49;;;;;;;;;;;;;;;10.39;100.00;-18307.75;5001802;28;20395;-79
2023/05/25 04:46:15;;;;;;;;;;;;;;;10.61;100.00;-18313.78;5014513;28;19996;-79
2023/05/25 04:48:41;;;;;;;;;;;;;;;10.82;100.00;-18319.28;4998952;28;20397;-79
2023/05/25 04:51:06;;;;;;;;;;;;;;;10.96;100.00;-18323.00;5008075;28;19947;-79
2023/05/25 04:53:31;;;;;;;;;;;;;;;11.04;100.00;-18325.34;5009242;28;19924;-80
2023/05/25 04:55:57;;;;;;;;;;;;;;;11.16;100.00;-18328.34;5003645;28;20307;-78
2023/05/25 04:58:23;;;;;;;;;;;;;;;11.23;100.00;-18330.28;5015911;23;19933;-80
2023/05/25 05:00:48;;;;;;;;;;;;;;;11.13;100.00;-18327.53;4997713;28;19998;-80
2023/05/25 05:03:13;;;;;;;;;;;;;;;11.40;100.00;-18334.94;5003510;28;19976;-80
2023/05/25 05:05:38;;;;;;;;;;;;;;;11.57;100.00;-18339.47;5008479;28;19932;-80
2023/05/25 05:08:04;;;;;;;;;;;;;;;11.42;100.00;-18335.50;5001640;28;19921;-80
2023/05/25 05:10:29;;;;;;;;;;;;;;;11.35;100.00;-18333.56;5007826;28;19921;-79
2023/05/25 05:12:54;;;;;;;;;;;;;;;11.66;100.00;-18341.94;5004924;28;20281;-79
2023/05/25 05:15:20;;;;;;;;;;;;;;;11.76;100.00;-18344.56;5007166;28;19945;-80
2023/05/25 05:17:45;;;;;;;;;;;;;;;11.83;100.00;-18346.47;5000800;28;20020;-79
2023/05/25 05:20:10;;;;;;;;;;;;;;;11.89;100.00;-18348.00;5003708;28;19922;-80
2023/05/25 05:22:36;;;;;;;;;;;;;;;12.00;100.00;-18351.00;5003886;28;19929;-80
2023/05/25 05:25:01;;;;;;;;;;;;;;;12.10;100.00;-18353.63;5006866;28;19979;-80
2023/05/25 05:27:27;;;;;;;;;;;;;;;12.23;100.00;-18357.19;5005698;28;20289;-80
2023/05/25 05:29:52;;;;;;;;;;;;;;;12.47;100.00;-18363.50;5006976;28;19968;-80
2023/05/25 05:32:17;;;;;;;;;;;;;;;12.61;100.00;-18367.34;5003029;28;19922;-81
2023/05/25 05:34:42;;;;;;;;;;;;;;;12.64;100.00;-18368.28;5009600;28;19921;-80
2023/05/25 05:37:08;;;;;;;;;;;;;;;12.77;100.00;-18371.59;5008083;28;19928;-80
2023/05/25 05:39:33;;;;;;;;;;;;;;;12.92;100.00;-18375.56;5007932;28;20351;-80
2023/05/25 05:41:59;;;;;;;;;;;;;;;12.93;100.00;-18375.97;5008768;28;19929;-80
2023/05/25 05:44:24;;;;;;;;;;;;;;;12.87;100.00;-18374.31;5006789;28;19925;-80
2023/05/25 05:46:49;;;;;;;;;;;;;;;12.98;100.00;-18377.34;5005924;28;19960;-80
2023/05/25 05:49:14;;;;;;;;;;;;;;;13.12;100.00;-18381.03;5006525;28;19930;-80
2023/05/25 05:51:40;;;;;;;;;;;;;;;13.23;100.00;-18384.06;5005487;28;19952;-79
2023/05/25 05:54:05;;;;;;;;;;;;;;;13.39;100.00;-18388.19;5005804;28;19975;-80
2023/05/25 05:56:30;;;;;;;;;;;;;;;13.47;100.00;-18390.38;5004288;28;19925;-80
2023/05/25 05:58:56;;;;;;;;;;;;;;;13.50;100.00;-18391.31;5004217;28;19961;-80
2023/05/25 06:01:22;;;;;;;;;;;;;;;13.80;100.00;-18399.13;4995780;28;19922;-79
2023/05/25 06:03:47;;;;;;;;;;;;;;;13.69;100.00;-18396.41;4994913;28;19972;-80
2023/05/25 06:06:13;;;;;;;;;;;;;;;13.69;100.00;-18396.41;4996305;28;19926;-79
2023/05/25 06:08:39;;;;;;;;;;;;;;;13.74;100.00;-18397.63;4997605;28;19921;-79
2023/05/25 06:11:05;;;;;;;;;;;;;;;13.84;100.00;-18400.22;5002411;28;19925;-80
2023/05/25 06:13:30;;;;;;;;;;;;;;;14.11;100.00;-18407.63;5006629;28;19921;-79
2023/05/25 06:15:55;;;;;;;;;;;;;;;14.14;100.00;-18408.44;5008932;28;19922;-80
2023/05/25 06:18:20;;;;;;;;;;;;;;;14.21;100.00;-18410.38;5003559;28;20011;-80
2023/05/25 06:20:46;;;;;;;;;;;;;;;14.33;100.00;-18413.53;5005330;28;20012;-80
2023/05/25 06:23:12;;;;;;;;;;;;;;;14.54;100.00;-18419.00;5010253;28;20285;-79
2023/05/25 06:25:38;;;;;;;;;;;;;;;14.61;100.00;-18421.06;5013024;28;19917;-80
2023/05/25 06:28:03;;;;;;;;;;;;;;;14.80;100.00;-18425.97;5011167;28;19949;-80
2023/05/25 06:30:28;;;;;;;;;;;;;;;14.76;100.00;-18424.88;5009551;28;19927;-80
2023/05/25 06:32:54;;;;;;;;;;;;;;;14.72;100.00;-18423.78;5013193;28;19921;-80
2023/05/25 06:35:19;;;;;;;;;;;;;;;14.88;100.00;-18428.16;5022864;28;19917;-80
2023/05/25 06:37:48;;;;;;;;;;;;;;;14.91;100.00;-18429.00;5012690;28;19932;-80
2023/05/25 06:40:14;;;;;;;;;;;;;;;15.11;100.00;-18434.47;5010638;28;19925;-80
2023/05/25 06:42:40;;;;;;;;;;;;;;;15.11;100.00;-18434.47;5011768;28;19917;-80
2023/05/25 06:45:06;;;;;;;;;;;;;;;15.08;100.00;-18433.63;5013944;28;19925;-80
2023/05/25 06:47:31;;;;;;;;;;;;;;;15.38;100.00;-18441.44;5008725;28;19922;-80
2023/05/25 06:49:57;;;;;;;;;;;;;;;15.38;100.00;-18441.56;5008079;28;19925;-80
2023/05/25 06:52:22;;;;;;;;;;;;;;;15.40;100.00;-18442.13;5007685;28;20402;-80
2023/05/25 06:54:47;;;;;;;;;;;;;;;15.53;100.00;-18445.53;5010003;28;19918;-80
2023/05/25 06:57:13;;;;;;;;;;;;;;;15.57;100.00;-18446.78;5004526;28;19926;-80
2023/05/25 06:59:38;;;;;;;;;;;;;;;15.70;100.00;-18450.06;5006308;28;20324;-80
2023/05/25 07:02:03;;;;;;;;;;;;;;;15.83;100.00;-18453.47;5012759;28;19929;-80
2023/05/25 07:04:28;;;;;;;;;;;;;;;15.73;100.00;-18450.88;5011971;28;19918;-80
2023/05/25 07:06:53;;;;;;;;;;;;;;;16.09;100.00;-18460.59;5009541;28;20438;-80
2023/05/25 07:09:19;;;;;;;;;;;;;;;16.11;100.00;-18461.00;5011225;28;20303;-80
2023/05/25 07:11:44;;;;;;;;;;;;;;;16.11;100.00;-18461.13;5002553;28;20375;-80
2023/05/25 07:14:09;;;;;;;;;;;;;;;15.92;100.00;-18456.06;5012075;28;20464;-80
2023/05/25 07:16:35;;;;;;;;;;;;;;;15.91;100.00;-18455.66;5006399;28;20158;-80
2023/05/25 07:19:00;;;;;;;;;;;;;;;16.06;100.00;-18459.63;5005171;28;19925;-80
2023/05/25 07:21:25;;;;;;;;;;;;;;;16.11;100.00;-18461.13;5004696;28;19922;-80
2023/05/25 07:23:50;;;;;;;;;;;;;;;16.00;100.00;-18458.25;4997727;28;19925;-80
2023/05/25 07:26:16;;;;;;;;;;;;;;;16.27;100.00;-18465.38;5006908;28;19921;-80
2023/05/25 07:28:41;;;;;;;;;;;;;;;16.14;100.00;-18461.81;5009353;28;20075;-80
2023/05/25 07:31:07;;;;;;;;;;;;;;;16.12;100.00;-18461.28;5000592;28;19917;-80
2023/05/25 07:33:32;;;;;;;;;;;;;;;16.22;100.00;-18464.00;5011338;28;19953;-80
2023/05/25 07:35:57;;;;;;;;;;;;;;;16.37;100.00;-18467.97;5011932;28;20031;-80
2023/05/25 07:38:23;;;;;;;;;;;;;;;16.19;100.00;-18463.19;4997356;28;19922;-80
2023/05/25 07:40:48;;;;;;;;;;;;;;;16.26;100.00;-18464.97;5005446;28;19917;-80
2023/05/25 07:43:14;;;;;;;;;;;;;;;16.32;100.00;-18466.59;5008586;28;19928;-80
2023/05/25 07:45:39;;;;;;;;;;;;;;;16.40;100.00;-18468.94;4999933;28;19921;-80
2023/05/25 07:48:06;;;;;;;;;;;;;;;16.24;100.00;-18464.69;5010649;28;19917;-80
2023/05/25 07:50:31;;;;;;;;;;;;;;;16.33;100.00;-18467.00;5005543;28;19918;-80
2023/05/25 07:52:58;;;;;;;;;;;;;;;16.44;100.00;-18470.00;5011312;28;20012;-80
2023/05/25 07:55:25;;;;;;;;;;;;;;;16.38;100.00;-18468.38;5008766;28;19923;-80
2023/05/25 07:57:50;;;;;;;;;;;;;;;16.36;100.00;-18467.69;5007888;28;19952;-80
2023/05/25 08:00:15;;;;;;;;;;;;;;;16.35;100.00;-18467.41;5003397;28;20359;-80
2023/05/25 08:02:40;;;;;;;;;;;;;;;16.37;100.00;-18467.97;4996168;28;19945;-80
2023/05/25 08:05:06;;;;;;;;;;;;;;;16.45;100.00;-18470.28;5004685;28;20508;-80
2023/05/25 08:07:32;;;;;;;;;;;;;;;16.29;100.00;-18465.91;5002066;28;19922;-80
2023/05/25 08:09:57;;;;;;;;;;;;;;;16.19;100.00;-18463.19;5006026;28;20290;-80
2023/05/25 08:12:23;;;;;;;;;;;;;;;16.35;100.00;-18467.56;5008918;28;20385;-80
2023/05/25 08:14:48;;;;;;;;;;;;;;;16.34;100.00;-18467.28;5006902;28;19929;-80
2023/05/25 08:17:13;;;;;;;;;;;;;;;16.36;100.00;-18467.81;5004123;28;19933;-80
2023/05/25 08:19:38;;;;;;;;;;;;;;;16.47;100.00;-18470.84;5006207;28;19936;-80
2023/05/25 08:22:03;;;;;;;;;;;;;;;16.54;100.00;-18472.47;5003498;28;20372;-80
2023/05/25 08:24:29;;;;;;;;;;;;;;;16.33;100.00;-18467.00;5005071;28;20021;-80
2023/05/25 08:26:54;;;;;;;;;;;;;;;16.31;100.00;-18466.31;5007405;28;19937;-80
2023/05/25 08:29:20;;;;;;;;;;;;;;;16.61;100.00;-18474.38;5004473;28;20324;-80
2023/05/25 08:31:48;;;;;;;;;;;;;;;16.76;100.00;-18478.50;4999508;28;20424;-80
2023/05/25 08:34:13;;;;;;;;;;;;;;;17.09;100.00;-18487.22;5005503;28;20032;-80
2023/05/25 08:36:38;;;;;;;;;;;;;;;17.26;100.00;-18491.88;4998110;28;20079;-80
2023/05/25 08:39:04;;;;;;;;;;;;;;;17.24;100.00;-18491.31;4998188;28;20324;-80
2023/05/25 08:41:29;;;;;;;;;;;;;;;17.35;100.00;-18494.34;5004455;28;19945;-80
2023/05/25 08:43:54;;;;;;;;;;;;;;;17.34;100.00;-18494.06;5002835;28;19929;-80
2023/05/25 08:46:27;;;;;;;;;;;;;;;17.22;100.00;-18490.78;5004366;28;20312;-80
2023/05/25 08:48:57;;;;;;;;;;;;;;;17.02;100.00;-18485.31;4992575;28;19925;-80
2023/05/25 08:51:22;;;;;;;;;;;;;;;16.65;100.00;-18475.47;5013554;28;20347;-80
2023/05/25 08:53:47;;;;;;;;;;;;;;;16.81;100.00;-18479.84;4999782;28;20189;-80
2023/05/25 08:56:17;;;;;;;;;;;;;;;16.44;100.00;-18469.88;5003639;28;19967;-80
2023/05/25 08:58:44;;;;;;;;;;;;;;;16.43;100.00;-18469.59;5002241;28;19936;-80
2023/05/25 09:01:13;;;;;;;;;;;;;;;16.33;100.00;-18466.88;4999688;28;19931;-80
2023/05/25 09:03:38;;;;;;;;;;;;;;;16.27;100.00;-18465.22;5002774;28;19921;-80
2023/05/25 09:06:03;;;;;;;;;;;;;;;16.54;100.00;-18472.47;5004180;28;19921;-80
2023/05/25 09:08:29;;;;;;;;;;;;;;;16.38;100.00;-18468.38;5003191;28;19926;-80
2023/05/25 09:10:55;;;;;;;;;;;;;;;16.28;100.00;-18465.63;5005214;28;19934;-80
2023/05/25 09:13:20;;;;;;;;;;;;;;;16.37;100.00;-18468.09;5007942;28;19922;-80
2023/05/25 09:15:46;;;;;;;;;;;;;;;16.32;100.00;-18466.59;5007568;28;19929;-80
2023/05/25 09:18:11;;;;;;;;;;;;;;;16.33;100.00;-18467.00;5000608;28;19923;-80
2023/05/25 09:20:36;;;;;;;;;;;;;;;16.24;100.00;-18464.69;5004030;28;19968;-80
2023/05/25 09:23:02;;;;;;;;;;;;;;;16.49;100.00;-18471.25;5004961;28;19961;-80
2023/05/25 09:25:27;;;;;;;;;;;;;;;16.65;100.00;-18475.47;5004399;28;19944;-80
2023/05/25 09:27:55;;;;;;;;;;;;;;;16.63;100.00;-18474.94;5021524;28;19921;-80
2023/05/25 09:30:20;;;;;;;;;;;;;;;16.62;100.00;-18474.66;5008832;28;20500;-80
2023/05/25 09:32:45;;;;;;;;;;;;;;;16.87;100.00;-18481.50;5006683;28;20048;-80
2023/05/25 09:35:11;;;;;;;;;;;;;;;17.09;100.00;-18487.22;5006547;28;19921;-80
2023/05/25 09:37:37;;;;;;;;;;;;;;;17.18;100.00;-18489.69;5004690;28;19921;-80
2023/05/25 09:40:04;;;;;;;;;;;;;;;17.44;100.00;-18496.50;5006724;28;20104;-80
2023/05/25 09:42:29;;;;;;;;;;;;;;;17.54;100.00;-18499.25;5003991;28;19932;-80
2023/05/25 09:44:56;;;;;;;;;;;;;;;17.91;100.00;-18509.22;5006567;28;19925;-80
2023/05/25 09:47:21;;;;;;;;;;;;;;;17.77;100.00;-18505.38;5005127;28;20972;-80
2023/05/25 09:49:49;;;;;;;;;;;;;;;17.75;100.00;-18504.97;5005215;28;19980;-80
2023/05/25 09:52:14;;;;;;;;;;;;;;;18.00;100.00;-18511.66;5006265;28;19929;-80
2023/05/25 09:54:42;;;;;;;;;;;;;;;18.04;100.00;-18512.63;5009831;28;20262;-80
2023/05/25 09:57:09;;;;;;;;;;;;;;;18.13;100.00;-18514.94;5008573;28;19930;-80
2023/05/25 09:59:35;;;;;;;;;;;;;;;18.19;100.00;-18516.72;5007836;28;19989;-80
2023/05/25 10:02:00;;;;;;;;;;;;;;;18.16;100.00;-18515.91;5009169;28;20009;-80
2023/05/25 10:04:25;;;;;;;;;;;;;;;17.96;100.00;-18510.44;5011694;28;20029;-80
2023/05/25 10:06:51;;;;;;;;;;;;;;;17.78;100.00;-18505.66;5008404;28;19957;-80
2023/05/25 10:09:17;;;;;;;;;;;;;;;17.83;100.00;-18506.88;5012280;28;19929;-80
2023/05/25 10:11:43;;;;;;;;;;;;;;;17.83;100.00;-18506.88;5005121;28;20004;-80
2023/05/25 10:14:09;;;;;;;;;;;;;;;18.02;100.00;-18512.06;5009930;28;20032;-80
2023/05/25 10:16:38;;;;;;;;;;;;;;;18.11;100.00;-18514.41;5005899;28;20385;-80
2023/05/25 10:19:05;;;;;;;;;;;;;;;18.05;97.46;-18512.91;5010568;28;20004;-80
2023/05/25 10:21:32;;;;;;;;;;;;;;;18.12;100.00;-18514.81;5005400;28;19925;-80
2023/05/25 10:24:03;;;;;;;;;;;;;;;18.36;100.00;-18521.06;5006988;28;19929;-80
2023/05/25 10:26:32;;;;;;;;;;;;;;;18.47;91.28;-18524.22;5009786;28;19974;-80
2023/05/25 10:29:03;;;;;;;;;;;;;;;18.19;92.33;-18516.56;5009344;28;20391;-80
2023/05/25 10:31:28;;;;;;;;;;;;;;;18.09;97.61;-18513.84;5006671;28;19922;-80
2023/05/25 10:33:54;;;;;;;;;;;;;;;18.03;94.63;-18512.47;5009300;28;20395;-80
2023/05/25 10:36:20;;;;;;;;;;;;;;;18.02;97.04;-18512.06;5010113;28;19928;-80
2023/05/25 10:38:46;;;;;;;;;;;;;;;18.15;99.03;-18515.47;5005297;28;19929;-80
2023/05/25 10:41:14;;;;;;;;;;;;;;;18.19;94.49;-18516.56;5009169;28;19979;-80
2023/05/25 10:43:40;;;;;;;;;;;;;;;18.43;94.68;-18523.13;5005284;28;20640;-80
2023/05/25 10:46:05;;;;;;;;;;;;;;;18.35;91.44;-18520.94;5009597;28;19931;-80
2023/05/25 10:48:34;;;;;;;;;;;;;;;18.50;86.98;-18524.91;5007832;28;20532;-81
2023/05/25 10:50:59;;;;;;;;;;;;;;;18.67;92.59;-18529.53;5004886;28;19979;-81
2023/05/25 10:53:24;;;;;;;;;;;;;;;18.58;85.92;-18526.94;5007787;28;19925;-81
2023/05/25 10:55:50;;;;;;;;;;;;;;;18.53;91.86;-18525.56;5008215;28;19969;-81
2023/05/25 10:58:16;;;;;;;;;;;;;;;18.79;100.00;-18532.66;5028925;23;19926;-85
2023/05/25 11:00:42;;;;;;;;;;;;;;;19.17;81.40;-18542.88;5008982;28;20005;-86
2023/05/25 11:03:08;;;;;;;;;;;;;;;18.93;81.64;-18536.34;5003763;28;20052;-84
2023/05/25 11:05:35;;;;;;;;;;;;;;;18.77;78.76;-18532.13;5026423;28;20020;-84
2023/05/25 11:08:04;;;;;;;;;;;;;;;18.64;79.50;-18528.72;5027294;28;20399;-85
2023/05/25 11:10:47;;;;;;;;;;;;;;;18.76;83.15;-18531.72;5028217;28;19939;-85
2023/05/25 11:13:30;;;;;;;;;;;;;;;18.64;83.61;-18528.72;5027787;28;19921;-85
2023/05/25 11:16:16;;;;;;;;;;;;;;;18.74;75.56;-18531.16;5011253;28;19922;-84
2023/05/25 11:18:42;;;;;;;;;;;;;;;18.93;78.87;-18536.50;5025100;28;19927;-85
2023/05/25 11:21:11;;;;;;;;;;;;;;;18.98;75.42;-18537.56;5023321;28;20048;-85
2023/05/25 11:23:53;;;;;;;;;;;;;;;18.91;73.92;-18535.81;4998360;28;19964;-83
2023/05/25 11:26:34;;;;;;;;;;;;;;;19.03;75.17;-18538.94;5030686;28;20352;-85
2023/05/25 11:29:00;;;;;;;;;;;;;;;19.19;76.24;-18543.16;5015801;28;19925;-84
2023/05/25 11:31:31;;;;;;;;;;;;;;;19.28;77.41;-18545.63;5025502;28;20407;-85
2023/05/25 11:33:57;;;;;;;;;;;;;;;19.88;69.21;-18561.56;5030996;28;19921;-83
2023/05/25 11:36:23;;;;;;;;;;;;;;;19.78;64.19;-18558.97;5010627;28;19917;-83
2023/05/25 11:38:51;;;;;;;;;;;;;;;19.51;65.35;-18551.88;5030539;28;19917;-84
2023/05/25 11:41:20;;;;;;;;;;;;;;;19.70;62.77;-18556.94;5030011;28;19975;-84
2023/05/25 11:43:46;;;;;;;;;;;;;;;19.60;62.48;-18554.34;5014235;28;19936;-84
2023/05/25 11:46:13;;;;;;;;;;;;;;;19.64;68.93;-18555.16;5011190;28;20620;-83
2023/05/25 11:48:41;;;;;;;;;;;;;;;19.73;69.17;-18557.59;5018750;28;19979;-83
2023/05/25 11:51:07;;;;;;;;;;;;;;;19.69;67.19;-18556.53;5028065;28;20004;-84
2023/05/25 11:53:32;;;;;;;;;;;;;;;19.77;66.74;-18558.69;5029155;28;20037;-84
2023/05/25 11:55:57;;;;;;;;;;;;;;;19.93;66.38;-18563.06;5027300;28;19926;-85
2023/05/25 11:58:23;;;;;;;;;;;;;;;20.08;65.17;-18567.00;5030054;28;19921;-85
2023/05/25 12:00:48;;;;;;;;;;;;;;;19.92;62.52;-18562.66;5012262;28;19971;-85
2023/05/25 12:03:30;;;;;;;;;;;;;;;19.89;62.67;-18561.97;4978179;28;19928;-86
2023/05/25 12:05:55;;;;;;;;;;;;;;;19.80;61.31;-18559.66;5019378;28;19961;-85
2023/05/25 12:08:36;;;;;;;;;;;;;;;19.91;59.93;-18562.38;5007961;28;20281;-84
2023/05/25 12:11:01;;;;;;;;;;;;;;;20.08;64.12;-18566.88;4997129;28;19923;-85
2023/05/25 12:13:29;;;;;;;;;;;;;;;20.05;62.66;-18566.19;4988682;28;20306;-85
2023/05/25 12:15:56;;;;;;;;;;;;;;;20.11;59.47;-18567.81;5005352;28;20324;-88
2023/05/25 12:18:22;;;;;;;;;;;;;;;19.76;66.89;-18558.41;4990353;28;19964;-86
2023/05/25 12:20:47;;;;;;;;;;;;;;;19.98;63.62;-18564.41;5008958;28;20368;-86
2023/05/25 12:23:12;;;;;;;;;;;;;;;19.95;66.02;-18563.59;4974854;28;19917;-88
2023/05/25 12:25:37;;;;;;;;;;;;;;;19.99;63.29;-18564.69;5016840;28;19924;-86